sensor_id;sensor_type;location;lat;lon;timestamp;pressure;altitude;pressure_sealevel;temperature
79714;BMP280;69206;51.420;5.400;2023-08-17T10:54:42;101843.84;;;22.18
79714;BMP280;69206;51.420;5.400;2023-08-17T10:57:30;101846.28;;;22.19
79714;BMP280;69206;51.420;5.400;2023-08-17T11:00:16;101853.84;;;22.09
79714;BMP280;69206;51.420;5.400;2023-08-17T11:03:07;101785.91;;;21.76
79714;BMP280;69206;51.420;5.400;2023-08-17T11:05:46;101851.66;;;22.19
79714;BMP280;69206;51.420;5.400;2023-08-17T11:08:54;101853.53;;;22.25
79714;BMP280;69206;51.420;5.400;2023-08-17T11:11:21;101825.25;;;22.10
79714;BMP280;69206;51.420;5.400;2023-08-17T11:14:05;101851.72;;;22.32
79714;BMP280;69206;51.420;5.400;2023-08-17T11:16:33;101792.81;;;22.19
79714;BMP280;69206;51.420;5.400;2023-08-17T11:19:00;101855.31;;;22.86
79714;BMP280;69206;51.420;5.400;2023-08-17T11:21:27;101858.31;;;22.63
79714;BMP280;69206;51.420;5.400;2023-08-17T11:23:55;101794.84;;;22.11
79714;BMP280;69206;51.420;5.400;2023-08-17T11:26:26;101863.88;;;22.68
79714;BMP280;69206;51.420;5.400;2023-08-17T11:28:52;101850.56;;;22.81
79714;BMP280;69206;51.420;5.400;2023-08-17T11:31:19;101865.28;;;22.64
79714;BMP280;69206;51.420;5.400;2023-08-17T11:36:34;101845.66;;;22.85
79714;BMP280;69206;51.420;5.400;2023-08-17T11:39:05;101858.00;;;22.46
79714;BMP280;69206;51.420;5.400;2023-08-17T11:41:32;101862.69;;;22.37
79714;BMP280;69206;51.420;5.400;2023-08-17T11:44:00;101865.09;;;22.32
79714;BMP280;69206;51.420;5.400;2023-08-17T11:46:25;101786.47;;;21.93
79714;BMP280;69206;51.420;5.400;2023-08-17T11:48:53;101834.66;;;21.99
79714;BMP280;69206;51.420;5.400;2023-08-17T11:51:31;101790.19;;;21.71
79714;BMP280;69206;51.420;5.400;2023-08-17T11:54:02;101762.16;;;21.88
79714;BMP280;69206;51.420;5.400;2023-08-17T11:56:32;101854.28;;;22.40
79714;BMP280;69206;51.420;5.400;2023-08-17T11:59:13;101840.41;;;22.03
79714;BMP280;69206;51.420;5.400;2023-08-17T12:01:40;101837.53;;;22.04
79714;BMP280;69206;51.420;5.400;2023-08-17T12:04:06;101855.91;;;22.14
79714;BMP280;69206;51.420;5.400;2023-08-17T12:06:32;101819.19;;;21.95
79714;BMP280;69206;51.420;5.400;2023-08-17T12:08:59;101834.41;;;22.28
79714;BMP280;69206;51.420;5.400;2023-08-17T12:11:27;101842.44;;;22.28
79714;BMP280;69206;51.420;5.400;2023-08-17T12:13:52;101850.00;;;22.18
79714;BMP280;69206;51.420;5.400;2023-08-17T12:16:19;101828.44;;;21.92
79714;BMP280;69206;51.420;5.400;2023-08-17T12:18:48;101838.50;;;22.18
79714;BMP280;69206;51.420;5.400;2023-08-17T12:21:13;101850.16;;;21.89
79714;BMP280;69206;51.420;5.400;2023-08-17T12:23:39;101845.19;;;21.80
79714;BMP280;69206;51.420;5.400;2023-08-17T12:26:04;101851.91;;;21.76
79714;BMP280;69206;51.420;5.400;2023-08-17T12:28:29;101823.41;;;21.62
79714;BMP280;69206;51.420;5.400;2023-08-17T12:31:00;101861.09;;;21.94
79714;BMP280;69206;51.420;5.400;2023-08-17T12:33:27;101856.47;;;22.03
79714;BMP280;69206;51.420;5.400;2023-08-17T12:35:52;101864.28;;;22.04
79714;BMP280;69206;51.420;5.400;2023-08-17T12:38:23;101856.03;;;21.99
79714;BMP280;69206;51.420;5.400;2023-08-17T12:40:48;101819.25;;;21.80
79714;BMP280;69206;51.420;5.400;2023-08-17T12:43:14;101855.72;;;22.15
79714;BMP280;69206;51.420;5.400;2023-08-17T12:45:39;101858.81;;;21.91
79714;BMP280;69206;51.420;5.400;2023-08-17T12:48:04;101851.59;;;22.13
79714;BMP280;69206;51.420;5.400;2023-08-17T12:50:30;101856.50;;;22.09
79714;BMP280;69206;51.420;5.400;2023-08-17T12:52:55;101850.72;;;22.06
79714;BMP280;69206;51.420;5.400;2023-08-17T12:55:21;101848.75;;;22.21
79714;BMP280;69206;51.420;5.400;2023-08-17T12:57:46;101827.22;;;22.01
79714;BMP280;69206;51.420;5.400;2023-08-17T13:00:13;101857.00;;;22.19
79714;BMP280;69206;51.420;5.400;2023-08-17T13:02:38;101846.75;;;21.95
79714;BMP280;69206;51.420;5.400;2023-08-17T13:05:05;101847.63;;;22.30
79714;BMP280;69206;51.420;5.400;2023-08-17T13:07:30;101820.47;;;22.05
79714;BMP280;69206;51.420;5.400;2023-08-17T13:09:55;101802.25;;;22.15
79714;BMP280;69206;51.420;5.400;2023-08-17T13:12:21;101834.13;;;22.44
79714;BMP280;69206;51.420;5.400;2023-08-17T13:14:47;101816.16;;;22.32
79714;BMP280;69206;51.420;5.400;2023-08-17T13:17:12;101832.31;;;22.51
79714;BMP280;69206;51.420;5.400;2023-08-17T13:19:40;101835.28;;;22.35
79714;BMP280;69206;51.420;5.400;2023-08-17T13:22:05;101836.84;;;22.23
79714;BMP280;69206;51.420;5.400;2023-08-17T13:24:30;101827.53;;;22.40
79714;BMP280;69206;51.420;5.400;2023-08-17T13:26:56;101837.09;;;22.62
79714;BMP280;69206;51.420;5.400;2023-08-17T13:29:22;101832.03;;;22.46
79714;BMP280;69206;51.420;5.400;2023-08-17T13:31:50;101819.22;;;22.35
79714;BMP280;69206;51.420;5.400;2023-08-17T13:34:15;101833.31;;;22.50
79714;BMP280;69206;51.420;5.400;2023-08-17T13:36:40;101846.38;;;22.59
79714;BMP280;69206;51.420;5.400;2023-08-17T13:39:07;101804.31;;;22.20
79714;BMP280;69206;51.420;5.400;2023-08-17T13:41:33;101805.78;;;22.56
79714;BMP280;69206;51.420;5.400;2023-08-17T13:43:59;101828.38;;;22.47
79714;BMP280;69206;51.420;5.400;2023-08-17T13:46:33;101816.44;;;22.49
79714;BMP280;69206;51.420;5.400;2023-08-17T13:48:59;101821.72;;;22.37
79714;BMP280;69206;51.420;5.400;2023-08-17T13:51:25;101834.81;;;22.59
79714;BMP280;69206;51.420;5.400;2023-08-17T13:53:50;101797.81;;;22.35
79714;BMP280;69206;51.420;5.400;2023-08-17T13:56:16;101818.53;;;22.60
79714;BMP280;69206;51.420;5.400;2023-08-17T13:58:42;101810.63;;;22.46
79714;BMP280;69206;51.420;5.400;2023-08-17T14:01:08;101811.88;;;22.44
79714;BMP280;69206;51.420;5.400;2023-08-17T14:03:33;101807.78;;;22.48
79714;BMP280;69206;51.420;5.400;2023-08-17T14:05:58;101795.41;;;22.06
79714;BMP280;69206;51.420;5.400;2023-08-17T14:08:25;101780.84;;;22.15
79714;BMP280;69206;51.420;5.400;2023-08-17T14:10:50;101807.28;;;22.31
79714;BMP280;69206;51.420;5.400;2023-08-17T14:13:15;101801.84;;;22.52
79714;BMP280;69206;51.420;5.400;2023-08-17T14:15:40;101734.25;;;21.97
79714;BMP280;69206;51.420;5.400;2023-08-17T14:18:06;101766.41;;;22.10
79714;BMP280;69206;51.420;5.400;2023-08-17T14:20:31;101808.53;;;22.35
79714;BMP280;69206;51.420;5.400;2023-08-17T14:22:57;101793.84;;;22.58
79714;BMP280;69206;51.420;5.400;2023-08-17T14:25:22;101701.28;;;21.90
79714;BMP280;69206;51.420;5.400;2023-08-17T14:27:48;101814.66;;;22.29
79714;BMP280;69206;51.420;5.400;2023-08-17T14:30:13;101793.31;;;22.36
79714;BMP280;69206;51.420;5.400;2023-08-17T14:32:38;101801.56;;;22.34
79714;BMP280;69206;51.420;5.400;2023-08-17T14:35:04;101802.13;;;22.30
79714;BMP280;69206;51.420;5.400;2023-08-17T14:37:29;101799.72;;;22.07
79714;BMP280;69206;51.420;5.400;2023-08-17T14:39:55;101797.69;;;22.09
79714;BMP280;69206;51.420;5.400;2023-08-17T14:42:20;101788.91;;;21.94
79714;BMP280;69206;51.420;5.400;2023-08-17T14:44:45;101759.59;;;21.73
79714;BMP280;69206;51.420;5.400;2023-08-17T14:47:11;101737.31;;;21.66
79714;BMP280;69206;51.420;5.400;2023-08-17T14:49:36;101799.03;;;21.71
79714;BMP280;69206;51.420;5.400;2023-08-17T14:52:01;101768.78;;;21.43
79714;BMP280;69206;51.420;5.400;2023-08-17T14:54:27;101725.94;;;21.30
79714;BMP280;69206;51.420;5.400;2023-08-17T14:56:52;101781.13;;;21.65
79714;BMP280;69206;51.420;5.400;2023-08-17T14:59:17;101760.94;;;21.90
79714;BMP280;69206;51.420;5.400;2023-08-17T15:01:44;101712.16;;;21.54
79714;BMP280;69206;51.420;5.400;2023-08-17T15:04:09;101780.91;;;21.94
79714;BMP280;69206;51.420;5.400;2023-08-17T15:06:36;101751.34;;;21.75
79714;BMP280;69206;51.420;5.400;2023-08-17T15:09:01;101738.34;;;21.65
79714;BMP280;69206;51.420;5.400;2023-08-17T15:11:28;101769.66;;;22.05
79714;BMP280;69206;51.420;5.400;2023-08-17T15:13:53;101731.63;;;21.76
79714;BMP280;69206;51.420;5.400;2023-08-17T15:16:19;101763.75;;;21.82
79714;BMP280;69206;51.420;5.400;2023-08-17T15:18:52;101762.56;;;21.85
79714;BMP280;69206;51.420;5.400;2023-08-17T15:21:17;101748.91;;;21.73
79714;BMP280;69206;51.420;5.400;2023-08-17T15:23:44;101761.28;;;21.81
79714;BMP280;69206;51.420;5.400;2023-08-17T15:26:09;101759.66;;;21.86
79714;BMP280;69206;51.420;5.400;2023-08-17T15:28:35;101737.09;;;21.89
79714;BMP280;69206;51.420;5.400;2023-08-17T15:31:02;101761.19;;;21.95
79714;BMP280;69206;51.420;5.400;2023-08-17T15:33:29;101768.69;;;22.13
79714;BMP280;69206;51.420;5.400;2023-08-17T15:35:55;101730.19;;;21.73
79714;BMP280;69206;51.420;5.400;2023-08-17T15:38:22;101760.06;;;21.83
79714;BMP280;69206;51.420;5.400;2023-08-17T15:40:47;101752.34;;;22.01
79714;BMP280;69206;51.420;5.400;2023-08-17T15:43:13;101755.28;;;22.06
79714;BMP280;69206;51.420;5.400;2023-08-17T15:45:38;101732.78;;;21.94
79714;BMP280;69206;51.420;5.400;2023-08-17T15:48:05;101740.63;;;21.96
79714;BMP280;69206;51.420;5.400;2023-08-17T15:50:31;101741.75;;;22.14
79714;BMP280;69206;51.420;5.400;2023-08-17T15:52:56;101743.06;;;21.91
79714;BMP280;69206;51.420;5.400;2023-08-17T15:55:21;101734.41;;;21.89
79714;BMP280;69206;51.420;5.400;2023-08-17T15:57:47;101726.56;;;21.87
79714;BMP280;69206;51.420;5.400;2023-08-17T16:00:14;101744.03;;;21.83
79714;BMP280;69206;51.420;5.400;2023-08-17T16:02:42;101744.06;;;21.90
79714;BMP280;69206;51.420;5.400;2023-08-17T16:05:07;101730.06;;;21.81
79714;BMP280;69206;51.420;5.400;2023-08-17T16:07:33;101738.41;;;21.99
79714;BMP280;69206;51.420;5.400;2023-08-17T16:09:58;101738.41;;;21.99
79714;BMP280;69206;51.420;5.400;2023-08-17T16:12:24;101704.72;;;21.77
79714;BMP280;69206;51.420;5.400;2023-08-17T16:14:49;101709.81;;;21.72
79714;BMP280;69206;51.420;5.400;2023-08-17T16:17:15;101736.28;;;21.88
79714;BMP280;69206;51.420;5.400;2023-08-17T16:19:40;101683.84;;;21.60
79714;BMP280;69206;51.420;5.400;2023-08-17T16:22:05;101731.06;;;21.80
79714;BMP280;69206;51.420;5.400;2023-08-17T16:24:31;101706.44;;;21.57
79714;BMP280;69206;51.420;5.400;2023-08-17T16:26:57;101722.16;;;21.73
79714;BMP280;69206;51.420;5.400;2023-08-17T16:29:22;101725.28;;;21.77
79714;BMP280;69206;51.420;5.400;2023-08-17T16:32:01;101717.16;;;21.64
79714;BMP280;69206;51.420;5.400;2023-08-17T16:34:29;101716.88;;;21.80
79714;BMP280;69206;51.420;5.400;2023-08-17T16:36:54;101646.69;;;21.37
79714;BMP280;69206;51.420;5.400;2023-08-17T16:39:19;101706.50;;;22.04
79714;BMP280;69206;51.420;5.400;2023-08-17T16:41:45;101689.13;;;21.53
79714;BMP280;69206;51.420;5.400;2023-08-17T16:44:11;101716.91;;;21.86
79714;BMP280;69206;51.420;5.400;2023-08-17T16:46:36;101692.53;;;21.68
79714;BMP280;69206;51.420;5.400;2023-08-17T16:49:02;101685.56;;;21.46
79714;BMP280;69206;51.420;5.400;2023-08-17T16:51:27;101708.50;;;21.62
79714;BMP280;69206;51.420;5.400;2023-08-17T16:53:53;101697.28;;;21.45
79714;BMP280;69206;51.420;5.400;2023-08-17T16:56:20;101687.84;;;21.49
79714;BMP280;69206;51.420;5.400;2023-08-17T16:58:46;101714.31;;;21.65
79714;BMP280;69206;51.420;5.400;2023-08-17T17:01:12;101669.06;;;21.15
79714;BMP280;69206;51.420;5.400;2023-08-17T17:03:37;101688.75;;;21.35
79714;BMP280;69206;51.420;5.400;2023-08-17T17:06:03;101696.06;;;21.48
79714;BMP280;69206;51.420;5.400;2023-08-17T17:08:29;101702.06;;;21.50
79714;BMP280;69206;51.420;5.400;2023-08-17T17:10:54;101699.69;;;21.61
79714;BMP280;69206;51.420;5.400;2023-08-17T17:13:20;101690.69;;;21.41
79714;BMP280;69206;51.420;5.400;2023-08-17T17:15:45;101690.72;;;21.27
79714;BMP280;69206;51.420;5.400;2023-08-17T17:18:10;101656.00;;;20.99
79714;BMP280;69206;51.420;5.400;2023-08-17T17:20:36;101652.44;;;21.13
79714;BMP280;69206;51.420;5.400;2023-08-17T17:23:01;101678.47;;;21.11
79714;BMP280;69206;51.420;5.400;2023-08-17T17:25:28;101686.03;;;21.50
79714;BMP280;69206;51.420;5.400;2023-08-17T17:27:54;101680.84;;;21.42
79714;BMP280;69206;51.420;5.400;2023-08-17T17:30:19;101684.47;;;21.34
79714;BMP280;69206;51.420;5.400;2023-08-17T17:32:45;101652.44;;;20.93
79714;BMP280;69206;51.420;5.400;2023-08-17T17:35:10;101677.47;;;21.12
79714;BMP280;69206;51.420;5.400;2023-08-17T17:37:36;101691.22;;;21.09
79714;BMP280;69206;51.420;5.400;2023-08-17T17:40:02;101676.19;;;21.08
79714;BMP280;69206;51.420;5.400;2023-08-17T17:42:29;101658.41;;;20.95
79714;BMP280;69206;51.420;5.400;2023-08-17T17:44:54;101683.94;;;21.03
79714;BMP280;69206;51.420;5.400;2023-08-17T17:47:21;101682.34;;;21.02
79714;BMP280;69206;51.420;5.400;2023-08-17T17:49:46;101667.81;;;20.91
79714;BMP280;69206;51.420;5.400;2023-08-17T17:52:11;101682.44;;;20.95
79714;BMP280;69206;51.420;5.400;2023-08-17T17:54:37;101683.59;;;21.06
79714;BMP280;69206;51.420;5.400;2023-08-17T17:57:04;101695.72;;;21.09
79714;BMP280;69206;51.420;5.400;2023-08-17T17:59:29;101680.25;;;20.84
79714;BMP280;69206;51.420;5.400;2023-08-17T18:01:55;101681.13;;;20.70
79714;BMP280;69206;51.420;5.400;2023-08-17T18:04:20;101646.25;;;20.36
79714;BMP280;69206;51.420;5.400;2023-08-17T18:06:47;101669.31;;;20.58
79714;BMP280;69206;51.420;5.400;2023-08-17T18:09:13;101684.19;;;20.67
79714;BMP280;69206;51.420;5.400;2023-08-17T18:11:39;101702.34;;;20.78
79714;BMP280;69206;51.420;5.400;2023-08-17T18:14:06;101689.44;;;20.75
79714;BMP280;69206;51.420;5.400;2023-08-17T18:16:33;101715.00;;;20.69
79714;BMP280;69206;51.420;5.400;2023-08-17T18:18:58;101712.38;;;20.55
79714;BMP280;69206;51.420;5.400;2023-08-17T18:21:24;101711.25;;;20.35
79714;BMP280;69206;51.420;5.400;2023-08-17T18:23:49;101720.91;;;20.65
79714;BMP280;69206;51.420;5.400;2023-08-17T18:26:14;101707.38;;;20.52
79714;BMP280;69206;51.420;5.400;2023-08-17T18:28:40;101729.88;;;20.64
79714;BMP280;69206;51.420;5.400;2023-08-17T18:31:06;101719.72;;;20.53
79714;BMP280;69206;51.420;5.400;2023-08-17T18:33:31;101731.28;;;20.60
79714;BMP280;69206;51.420;5.400;2023-08-17T18:35:56;101726.25;;;20.50
79714;BMP280;69206;51.420;5.400;2023-08-17T18:38:22;101739.34;;;20.45
79714;BMP280;69206;51.420;5.400;2023-08-17T18:40:47;101728.09;;;20.50
79714;BMP280;69206;51.420;5.400;2023-08-17T18:43:13;101720.19;;;20.42
79714;BMP280;69206;51.420;5.400;2023-08-17T18:45:38;101726.50;;;20.55
79714;BMP280;69206;51.420;5.400;2023-08-17T18:48:04;101710.00;;;20.45
79714;BMP280;69206;51.420;5.400;2023-08-17T18:50:29;101739.78;;;20.49
79714;BMP280;69206;51.420;5.400;2023-08-17T18:52:55;101740.31;;;20.44
79714;BMP280;69206;51.420;5.400;2023-08-17T18:55:23;101733.34;;;20.29
79714;BMP280;69206;51.420;5.400;2023-08-17T18:57:51;101735.81;;;20.59
79714;BMP280;69206;51.420;5.400;2023-08-17T19:00:19;101726.97;;;20.44
79714;BMP280;69206;51.420;5.400;2023-08-17T19:02:45;101724.59;;;20.35
79714;BMP280;69206;51.420;5.400;2023-08-17T19:05:10;101680.22;;;19.98
79714;BMP280;69206;51.420;5.400;2023-08-17T19:07:36;101728.00;;;20.29
79714;BMP280;69206;51.420;5.400;2023-08-17T19:10:01;101724.06;;;20.25
79714;BMP280;69206;51.420;5.400;2023-08-17T19:12:27;101649.88;;;19.85
79714;BMP280;69206;51.420;5.400;2023-08-17T19:14:52;101724.97;;;20.17
79714;BMP280;69206;51.420;5.400;2023-08-17T19:17:17;101703.13;;;20.07
79714;BMP280;69206;51.420;5.400;2023-08-17T19:19:43;101741.06;;;20.24
79714;BMP280;69206;51.420;5.400;2023-08-17T19:22:08;101725.94;;;20.02
79714;BMP280;69206;51.420;5.400;2023-08-17T19:24:34;101726.34;;;19.99
79714;BMP280;69206;51.420;5.400;2023-08-17T19:26:59;101733.78;;;20.03
79714;BMP280;69206;51.420;5.400;2023-08-17T19:29:25;101732.78;;;20.19
79714;BMP280;69206;51.420;5.400;2023-08-17T19:31:51;101723.59;;;20.07
79714;BMP280;69206;51.420;5.400;2023-08-17T19:34:17;101706.31;;;19.88
79714;BMP280;69206;51.420;5.400;2023-08-17T19:36:43;101724.97;;;19.88
79714;BMP280;69206;51.420;5.400;2023-08-17T19:39:08;101721.53;;;19.80
79714;BMP280;69206;51.420;5.400;2023-08-17T19:41:33;101733.13;;;19.87
79714;BMP280;69206;51.420;5.400;2023-08-17T19:43:59;101681.34;;;19.52
79714;BMP280;69206;51.420;5.400;2023-08-17T19:46:25;101699.38;;;19.65
79714;BMP280;69206;51.420;5.400;2023-08-17T19:48:50;101750.84;;;19.80
79714;BMP280;69206;51.420;5.400;2023-08-17T19:51:15;101705.72;;;19.64
79714;BMP280;69206;51.420;5.400;2023-08-17T19:53:41;101721.13;;;19.68
79714;BMP280;69206;51.420;5.400;2023-08-17T19:56:06;101728.94;;;19.70
79714;BMP280;69206;51.420;5.400;2023-08-17T19:58:37;101737.63;;;19.72
79714;BMP280;69206;51.420;5.400;2023-08-17T20:01:06;101745.81;;;19.85
79714;BMP280;69206;51.420;5.400;2023-08-17T20:03:36;101754.97;;;19.82
79714;BMP280;69206;51.420;5.400;2023-08-17T20:06:05;101742.38;;;19.76
79714;BMP280;69206;51.420;5.400;2023-08-17T20:08:33;101746.97;;;19.82
79714;BMP280;69206;51.420;5.400;2023-08-17T20:10:58;101741.66;;;19.82
79714;BMP280;69206;51.420;5.400;2023-08-17T20:13:24;101736.28;;;20.05
79714;BMP280;69206;51.420;5.400;2023-08-17T20:15:53;101753.09;;;20.05
79714;BMP280;69206;51.420;5.400;2023-08-17T20:18:19;101689.34;;;19.67
79714;BMP280;69206;51.420;5.400;2023-08-17T20:20:52;101740.59;;;19.91
79714;BMP280;69206;51.420;5.400;2023-08-17T20:23:19;101765.59;;;20.05
79714;BMP280;69206;51.420;5.400;2023-08-17T20:25:47;101735.69;;;19.95
79714;BMP280;69206;51.420;5.400;2023-08-17T20:28:14;101746.75;;;20.06
79714;BMP280;69206;51.420;5.400;2023-08-17T20:30:41;101763.56;;;20.07
79714;BMP280;69206;51.420;5.400;2023-08-17T20:33:08;101716.22;;;19.80
79714;BMP280;69206;51.420;5.400;2023-08-17T20:35:35;101721.19;;;19.83
79714;BMP280;69206;51.420;5.400;2023-08-17T20:38:00;101730.38;;;19.95
79714;BMP280;69206;51.420;5.400;2023-08-17T20:40:27;101752.91;;;20.07
79714;BMP280;69206;51.420;5.400;2023-08-17T20:42:52;101739.50;;;20.00
79714;BMP280;69206;51.420;5.400;2023-08-17T20:45:18;101729.09;;;19.91
79714;BMP280;69206;51.420;5.400;2023-08-17T20:47:44;101749.88;;;20.10
79714;BMP280;69206;51.420;5.400;2023-08-17T20:50:09;101754.72;;;20.06
79714;BMP280;69206;51.420;5.400;2023-08-17T20:52:37;101743.63;;;20.03
79714;BMP280;69206;51.420;5.400;2023-08-17T20:55:03;101740.84;;;19.96
79714;BMP280;69206;51.420;5.400;2023-08-17T20:57:29;101749.41;;;20.06
79714;BMP280;69206;51.420;5.400;2023-08-17T20:59:54;101748.59;;;20.06
79714;BMP280;69206;51.420;5.400;2023-08-17T21:02:21;101744.28;;;20.05
79714;BMP280;69206;51.420;5.400;2023-08-17T21:04:47;101742.81;;;20.17
79714;BMP280;69206;51.420;5.400;2023-08-17T21:07:14;101758.50;;;20.12
79714;BMP280;69206;51.420;5.400;2023-08-17T21:09:39;101757.41;;;20.06
79714;BMP280;69206;51.420;5.400;2023-08-17T21:12:05;101736.28;;;20.05
79714;BMP280;69206;51.420;5.400;2023-08-17T21:14:30;101688.19;;;19.69
79714;BMP280;69206;51.420;5.400;2023-08-17T21:16:56;101764.16;;;20.17
79714;BMP280;69206;51.420;5.400;2023-08-17T21:22:05;101753.50;;;20.17
79714;BMP280;69206;51.420;5.400;2023-08-17T21:24:31;101719.47;;;20.04
79714;BMP280;69206;51.420;5.400;2023-08-17T21:26:56;101727.34;;;19.83
79714;BMP280;69206;51.420;5.400;2023-08-17T21:29:22;101741.03;;;19.95
79714;BMP280;69206;51.420;5.400;2023-08-17T21:31:47;101744.84;;;20.00
79714;BMP280;69206;51.420;5.400;2023-08-17T21:34:14;101696.28;;;19.76
79714;BMP280;69206;51.420;5.400;2023-08-17T21:36:41;101737.94;;;20.06
79714;BMP280;69206;51.420;5.400;2023-08-17T21:39:06;101724.88;;;20.11
79714;BMP280;69206;51.420;5.400;2023-08-17T21:41:32;101699.22;;;19.95
79714;BMP280;69206;51.420;5.400;2023-08-17T21:43:58;101727.38;;;20.12
79714;BMP280;69206;51.420;5.400;2023-08-17T21:46:24;101684.53;;;19.85
79714;BMP280;69206;51.420;5.400;2023-08-17T21:48:49;101686.44;;;19.91
79714;BMP280;69206;51.420;5.400;2023-08-17T21:51:14;101664.22;;;19.69
79714;BMP280;69206;51.420;5.400;2023-08-17T21:53:40;101731.16;;;20.18
79714;BMP280;69206;51.420;5.400;2023-08-17T21:56:05;101714.84;;;19.98
79714;BMP280;69206;51.420;5.400;2023-08-17T21:58:31;101728.28;;;19.90
79714;BMP280;69206;51.420;5.400;2023-08-17T22:00:56;101713.56;;;19.94
79714;BMP280;69206;51.420;5.400;2023-08-17T22:03:22;101736.38;;;19.97
79714;BMP280;69206;51.420;5.400;2023-08-17T22:05:48;101724.13;;;19.88
79714;BMP280;69206;51.420;5.400;2023-08-17T22:08:13;101738.19;;;19.96
79714;BMP280;69206;51.420;5.400;2023-08-17T22:10:39;101727.78;;;19.87
79714;BMP280;69206;51.420;5.400;2023-08-17T22:13:04;101712.44;;;19.89
79714;BMP280;69206;51.420;5.400;2023-08-17T22:15:30;101695.38;;;19.83
79714;BMP280;69206;51.420;5.400;2023-08-17T22:17:56;101743.25;;;20.06
79714;BMP280;69206;51.420;5.400;2023-08-17T22:20:22;101741.06;;;20.09
79714;BMP280;69206;51.420;5.400;2023-08-17T22:22:48;101726.25;;;20.07
79714;BMP280;69206;51.420;5.400;2023-08-17T22:25:14;101701.16;;;19.87
79714;BMP280;69206;51.420;5.400;2023-08-17T22:27:39;101719.47;;;20.04
79714;BMP280;69206;51.420;5.400;2023-08-17T22:30:05;101727.69;;;19.95
79714;BMP280;69206;51.420;5.400;2023-08-17T22:32:31;101727.91;;;19.93
79714;BMP280;69206;51.420;5.400;2023-08-17T22:34:57;101706.25;;;19.74
79714;BMP280;69206;51.420;5.400;2023-08-17T22:37:22;101730.38;;;19.95
79714;BMP280;69206;51.420;5.400;2023-08-17T22:39:49;101701.91;;;19.95
79714;BMP280;69206;51.420;5.400;2023-08-17T22:42:14;101708.78;;;19.90
79714;BMP280;69206;51.420;5.400;2023-08-17T22:44:40;101720.19;;;19.98
79714;BMP280;69206;51.420;5.400;2023-08-17T22:47:05;101724.34;;;20.01
79714;BMP280;69206;51.420;5.400;2023-08-17T22:49:33;101725.03;;;19.95
79714;BMP280;69206;51.420;5.400;2023-08-17T22:51:59;101707.50;;;19.86
79714;BMP280;69206;51.420;5.400;2023-08-17T22:54:25;101699.38;;;19.79
79714;BMP280;69206;51.420;5.400;2023-08-17T22:56:51;101688.06;;;19.63
79714;BMP280;69206;51.420;5.400;2023-08-17T22:59:17;101710.41;;;19.76
79714;BMP280;69206;51.420;5.400;2023-08-17T23:01:42;101682.47;;;19.72
79714;BMP280;69206;51.420;5.400;2023-08-17T23:04:10;101672.66;;;19.73
79714;BMP280;69206;51.420;5.400;2023-08-17T23:06:35;101699.13;;;19.89
79714;BMP280;69206;51.420;5.400;2023-08-17T23:09:01;101663.19;;;19.70
79714;BMP280;69206;51.420;5.400;2023-08-17T23:11:26;101693.97;;;20.02
79714;BMP280;69206;51.420;5.400;2023-08-17T23:13:51;101702.81;;;19.88
79714;BMP280;69206;51.420;5.400;2023-08-17T23:16:17;101641.56;;;19.51
79714;BMP280;69206;51.420;5.400;2023-08-17T23:18:42;101662.44;;;19.62
79714;BMP280;69206;51.420;5.400;2023-08-17T23:21:07;101604.31;;;19.14
79714;BMP280;69206;51.420;5.400;2023-08-17T23:23:35;101659.31;;;19.58
79714;BMP280;69206;51.420;5.400;2023-08-17T23:26:03;101690.69;;;19.71
79714;BMP280;69206;51.420;5.400;2023-08-17T23:28:29;101694.63;;;19.75
79714;BMP280;69206;51.420;5.400;2023-08-17T23:30:57;101698.84;;;19.69
79714;BMP280;69206;51.420;5.400;2023-08-17T23:33:23;101663.16;;;19.41
79714;BMP280;69206;51.420;5.400;2023-08-17T23:35:48;101661.09;;;19.43
79714;BMP280;69206;51.420;5.400;2023-08-17T23:38:14;101631.28;;;19.48
79714;BMP280;69206;51.420;5.400;2023-08-17T23:40:39;101659.56;;;19.49
79714;BMP280;69206;51.420;5.400;2023-08-17T23:43:07;101666.91;;;19.47
79714;BMP280;69206;51.420;5.400;2023-08-17T23:45:32;101656.25;;;19.47
79714;BMP280;69206;51.420;5.400;2023-08-17T23:47:58;101648.63;;;19.44
79714;BMP280;69206;51.420;5.400;2023-08-17T23:50:23;101682.00;;;19.69
79714;BMP280;69206;51.420;5.400;2023-08-17T23:52:48;101669.50;;;19.55
79714;BMP280;69206;51.420;5.400;2023-08-17T23:55:14;101661.09;;;19.43
79714;BMP280;69206;51.420;5.400;2023-08-17T23:57:40;101692.66;;;19.69
